sensor_id;sensor_type;location;lat;lon;timestamp;temperature;humidity
790;DHT22;378;48.844;9.156;2023-09-12T00:01:11;21.10;99.90
790;DHT22;378;48.844;9.156;2023-09-12T00:03:38;21.10;99.90
790;DHT22;378;48.844;9.156;2023-09-12T00:06:05;21.10;99.90
790;DHT22;378;48.844;9.156;2023-09-12T00:08:32;21.00;99.90
790;DHT22;378;48.844;9.156;2023-09-12T00:11:00;21.00;99.90
790;DHT22;378;48.844;9.156;2023-09-12T00:13:29;21.00;99.90
790;DHT22;378;48.844;9.156;2023-09-12T00:15:56;21.00;99.90
790;DHT22;378;48.844;9.156;2023-09-12T00:18:23;21.00;99.90
790;DHT22;378;48.844;9.156;2023-09-12T00:20:51;21.00;99.90
790;DHT22;378;48.844;9.156;2023-09-12T00:23:18;20.90;99.90
790;DHT22;378;48.844;9.156;2023-09-12T00:25:45;21.00;99.90
790;DHT22;378;48.844;9.156;2023-09-12T00:28:12;21.00;99.90
790;DHT22;378;48.844;9.156;2023-09-12T00:30:40;20.90;99.90
790;DHT22;378;48.844;9.156;2023-09-12T00:33:07;20.90;99.90
790;DHT22;378;48.844;9.156;2023-09-12T00:35:33;20.80;99.90
790;DHT22;378;48.844;9.156;2023-09-12T00:38:01;20.80;99.90
790;DHT22;378;48.844;9.156;2023-09-12T00:40:28;20.80;99.90
790;DHT22;378;48.844;9.156;2023-09-12T00:42:55;20.70;99.90
790;DHT22;378;48.844;9.156;2023-09-12T00:45:22;20.70;99.90
790;DHT22;378;48.844;9.156;2023-09-12T00:47:51;20.70;99.90
790;DHT22;378;48.844;9.156;2023-09-12T00:50:19;20.60;99.90
790;DHT22;378;48.844;9.156;2023-09-12T00:52:47;20.60;99.90
790;DHT22;378;48.844;9.156;2023-09-12T00:55:14;20.60;99.90
790;DHT22;378;48.844;9.156;2023-09-12T00:57:42;20.60;99.90
790;DHT22;378;48.844;9.156;2023-09-12T01:00:12;20.60;99.90
790;DHT22;378;48.844;9.156;2023-09-12T01:02:39;20.60;99.90
790;DHT22;378;48.844;9.156;2023-09-12T01:05:08;20.50;99.90
790;DHT22;378;48.844;9.156;2023-09-12T01:07:36;20.50;99.90
790;DHT22;378;48.844;9.156;2023-09-12T01:10:04;20.60;99.90
790;DHT22;378;48.844;9.156;2023-09-12T01:12:31;20.50;99.90
790;DHT22;378;48.844;9.156;2023-09-12T01:14:58;20.50;99.90
790;DHT22;378;48.844;9.156;2023-09-12T01:17:25;20.50;99.90
790;DHT22;378;48.844;9.156;2023-09-12T01:19:52;20.50;99.90
790;DHT22;378;48.844;9.156;2023-09-12T01:22:40;20.50;99.90
790;DHT22;378;48.844;9.156;2023-09-12T01:28:09;20.40;99.90
790;DHT22;378;48.844;9.156;2023-09-12T01:30:38;20.40;99.90
790;DHT22;378;48.844;9.156;2023-09-12T01:33:05;20.40;99.90
790;DHT22;378;48.844;9.156;2023-09-12T01:35:32;20.30;99.90
790;DHT22;378;48.844;9.156;2023-09-12T01:37:59;20.30;99.90
790;DHT22;378;48.844;9.156;2023-09-12T01:40:33;20.30;99.90
790;DHT22;378;48.844;9.156;2023-09-12T01:43:01;20.30;99.90
790;DHT22;378;48.844;9.156;2023-09-12T01:45:32;20.30;99.90
790;DHT22;378;48.844;9.156;2023-09-12T01:48:00;20.30;99.90
790;DHT22;378;48.844;9.156;2023-09-12T01:50:28;20.20;99.90
790;DHT22;378;48.844;9.156;2023-09-12T01:52:55;20.20;99.90
790;DHT22;378;48.844;9.156;2023-09-12T01:55:23;20.10;99.90
790;DHT22;378;48.844;9.156;2023-09-12T01:57:51;20.10;99.90
790;DHT22;378;48.844;9.156;2023-09-12T02:00:18;20.10;99.90
790;DHT22;378;48.844;9.156;2023-09-12T02:02:46;20.10;99.90
790;DHT22;378;48.844;9.156;2023-09-12T02:05:16;20.10;99.90
790;DHT22;378;48.844;9.156;2023-09-12T02:07:45;20.10;99.90
790;DHT22;378;48.844;9.156;2023-09-12T02:10:12;20.10;99.90
790;DHT22;378;48.844;9.156;2023-09-12T02:12:39;20.10;99.90
790;DHT22;378;48.844;9.156;2023-09-12T02:15:07;20.10;99.90
790;DHT22;378;48.844;9.156;2023-09-12T02:17:34;20.10;99.90
790;DHT22;378;48.844;9.156;2023-09-12T02:20:03;20.10;99.90
790;DHT22;378;48.844;9.156;2023-09-12T02:22:31;20.10;99.90
790;DHT22;378;48.844;9.156;2023-09-12T02:24:58;20.20;99.90
790;DHT22;378;48.844;9.156;2023-09-12T02:27:25;20.10;99.90
790;DHT22;378;48.844;9.156;2023-09-12T02:29:52;20.20;99.90
790;DHT22;378;48.844;9.156;2023-09-12T02:32:18;20.10;99.90
790;DHT22;378;48.844;9.156;2023-09-12T02:34:45;20.10;99.90
790;DHT22;378;48.844;9.156;2023-09-12T02:37:13;20.00;99.90
790;DHT22;378;48.844;9.156;2023-09-12T02:39:41;20.10;99.90
790;DHT22;378;48.844;9.156;2023-09-12T02:42:08;20.10;99.90
790;DHT22;378;48.844;9.156;2023-09-12T02:44:34;20.10;99.90
790;DHT22;378;48.844;9.156;2023-09-12T02:47:02;20.10;99.90
790;DHT22;378;48.844;9.156;2023-09-12T02:49:29;20.10;99.90
790;DHT22;378;48.844;9.156;2023-09-12T02:51:56;20.10;99.90
790;DHT22;378;48.844;9.156;2023-09-12T02:54:24;20.10;99.90
790;DHT22;378;48.844;9.156;2023-09-12T02:56:51;20.10;99.90
790;DHT22;378;48.844;9.156;2023-09-12T02:59:18;20.00;99.90
790;DHT22;378;48.844;9.156;2023-09-12T03:01:45;19.90;99.90
790;DHT22;378;48.844;9.156;2023-09-12T03:04:11;19.90;99.90
790;DHT22;378;48.844;9.156;2023-09-12T03:06:38;19.90;99.90
790;DHT22;378;48.844;9.156;2023-09-12T03:09:05;19.90;99.90
790;DHT22;378;48.844;9.156;2023-09-12T03:11:34;19.80;99.90
790;DHT22;378;48.844;9.156;2023-09-12T03:14:01;19.80;99.90
790;DHT22;378;48.844;9.156;2023-09-12T03:16:28;19.80;99.90
790;DHT22;378;48.844;9.156;2023-09-12T03:18:54;19.80;99.90
790;DHT22;378;48.844;9.156;2023-09-12T03:21:21;19.80;99.90
790;DHT22;378;48.844;9.156;2023-09-12T03:23:48;19.80;99.90
790;DHT22;378;48.844;9.156;2023-09-12T03:26:15;19.80;99.90
790;DHT22;378;48.844;9.156;2023-09-12T03:28:43;19.80;99.90
790;DHT22;378;48.844;9.156;2023-09-12T03:31:12;19.80;99.90
790;DHT22;378;48.844;9.156;2023-09-12T03:33:39;19.80;99.90
790;DHT22;378;48.844;9.156;2023-09-12T03:36:07;19.80;99.90
790;DHT22;378;48.844;9.156;2023-09-12T03:38:34;19.80;99.90
790;DHT22;378;48.844;9.156;2023-09-12T03:41:01;19.70;99.90
790;DHT22;378;48.844;9.156;2023-09-12T03:43:28;19.70;99.90
790;DHT22;378;48.844;9.156;2023-09-12T03:45:56;19.70;99.90
790;DHT22;378;48.844;9.156;2023-09-12T03:48:23;19.60;99.90
790;DHT22;378;48.844;9.156;2023-09-12T03:50:50;19.60;99.90
790;DHT22;378;48.844;9.156;2023-09-12T03:53:17;19.60;99.90
790;DHT22;378;48.844;9.156;2023-09-12T03:55:44;19.60;99.90
790;DHT22;378;48.844;9.156;2023-09-12T03:58:11;19.60;99.90
790;DHT22;378;48.844;9.156;2023-09-12T04:00:38;19.60;99.90
790;DHT22;378;48.844;9.156;2023-09-12T04:03:06;19.60;99.90
790;DHT22;378;48.844;9.156;2023-09-12T04:05:33;19.50;99.90
790;DHT22;378;48.844;9.156;2023-09-12T04:08:00;19.40;99.90
790;DHT22;378;48.844;9.156;2023-09-12T04:10:27;19.40;99.90
790;DHT22;378;48.844;9.156;2023-09-12T04:12:54;19.40;99.90
790;DHT22;378;48.844;9.156;2023-09-12T04:15:20;19.40;99.90
790;DHT22;378;48.844;9.156;2023-09-12T04:17:47;19.40;99.90
790;DHT22;378;48.844;9.156;2023-09-12T04:20:16;19.40;99.90
790;DHT22;378;48.844;9.156;2023-09-12T04:22:42;19.40;99.90
790;DHT22;378;48.844;9.156;2023-09-12T04:25:09;19.40;99.90
790;DHT22;378;48.844;9.156;2023-09-12T04:27:36;19.40;99.90
790;DHT22;378;48.844;9.156;2023-09-12T04:30:04;19.40;99.90
790;DHT22;378;48.844;9.156;2023-09-12T04:32:31;19.40;99.90
790;DHT22;378;48.844;9.156;2023-09-12T04:34:58;19.40;99.90
790;DHT22;378;48.844;9.156;2023-09-12T04:37:26;19.40;99.90
790;DHT22;378;48.844;9.156;2023-09-12T04:39:53;19.40;99.90
790;DHT22;378;48.844;9.156;2023-09-12T04:42:20;19.40;99.90
790;DHT22;378;48.844;9.156;2023-09-12T04:44:48;19.40;99.90
790;DHT22;378;48.844;9.156;2023-09-12T04:47:15;19.50;99.90
790;DHT22;378;48.844;9.156;2023-09-12T04:49:43;19.40;99.90
790;DHT22;378;48.844;9.156;2023-09-12T04:52:10;19.40;99.90
790;DHT22;378;48.844;9.156;2023-09-12T04:54:38;19.50;99.90
790;DHT22;378;48.844;9.156;2023-09-12T04:57:05;19.50;99.90
790;DHT22;378;48.844;9.156;2023-09-12T04:59:31;19.50;99.90
790;DHT22;378;48.844;9.156;2023-09-12T05:01:58;19.50;99.90
790;DHT22;378;48.844;9.156;2023-09-12T05:04:25;19.50;99.90
790;DHT22;378;48.844;9.156;2023-09-12T05:06:52;19.60;99.90
790;DHT22;378;48.844;9.156;2023-09-12T05:09:19;19.60;99.90
790;DHT22;378;48.844;9.156;2023-09-12T05:11:48;19.60;99.90
790;DHT22;378;48.844;9.156;2023-09-12T05:14:15;19.60;99.90
790;DHT22;378;48.844;9.156;2023-09-12T05:16:42;19.60;99.90
790;DHT22;378;48.844;9.156;2023-09-12T05:19:09;19.60;99.90
790;DHT22;378;48.844;9.156;2023-09-12T05:21:36;19.60;99.90
790;DHT22;378;48.844;9.156;2023-09-12T05:24:03;19.60;99.90
790;DHT22;378;48.844;9.156;2023-09-12T05:26:30;19.70;99.90
790;DHT22;378;48.844;9.156;2023-09-12T05:28:58;19.60;99.90
790;DHT22;378;48.844;9.156;2023-09-12T05:31:25;19.60;99.90
790;DHT22;378;48.844;9.156;2023-09-12T05:33:52;19.70;99.90
790;DHT22;378;48.844;9.156;2023-09-12T05:36:19;19.70;99.90
790;DHT22;378;48.844;9.156;2023-09-12T05:38:45;19.80;99.90
790;DHT22;378;48.844;9.156;2023-09-12T05:41:12;19.60;99.90
790;DHT22;378;48.844;9.156;2023-09-12T05:43:39;19.60;99.90
790;DHT22;378;48.844;9.156;2023-09-12T05:46:07;19.70;99.90
790;DHT22;378;48.844;9.156;2023-09-12T05:48:34;19.80;99.90
790;DHT22;378;48.844;9.156;2023-09-12T05:51:01;19.80;99.90
790;DHT22;378;48.844;9.156;2023-09-12T05:53:28;19.90;99.90
790;DHT22;378;48.844;9.156;2023-09-12T05:55:54;19.90;99.90
790;DHT22;378;48.844;9.156;2023-09-12T05:58:21;20.10;99.90
790;DHT22;378;48.844;9.156;2023-09-12T06:00:51;20.10;99.90
790;DHT22;378;48.844;9.156;2023-09-12T06:03:19;20.20;99.90
790;DHT22;378;48.844;9.156;2023-09-12T06:05:46;20.30;99.90
790;DHT22;378;48.844;9.156;2023-09-12T06:08:13;20.40;99.90
790;DHT22;378;48.844;9.156;2023-09-12T06:10:40;20.40;99.90
790;DHT22;378;48.844;9.156;2023-09-12T06:13:07;20.50;99.90
790;DHT22;378;48.844;9.156;2023-09-12T06:15:34;20.60;99.90
790;DHT22;378;48.844;9.156;2023-09-12T06:18:01;20.60;99.90
790;DHT22;378;48.844;9.156;2023-09-12T06:20:29;20.70;99.90
790;DHT22;378;48.844;9.156;2023-09-12T06:22:56;20.70;99.90
790;DHT22;378;48.844;9.156;2023-09-12T06:25:24;20.90;99.90
790;DHT22;378;48.844;9.156;2023-09-12T06:27:51;21.00;99.90
790;DHT22;378;48.844;9.156;2023-09-12T06:30:18;21.00;99.90
790;DHT22;378;48.844;9.156;2023-09-12T06:32:45;21.10;99.90
790;DHT22;378;48.844;9.156;2023-09-12T06:35:12;21.10;99.90
790;DHT22;378;48.844;9.156;2023-09-12T06:37:46;21.20;99.90
790;DHT22;378;48.844;9.156;2023-09-12T06:40:13;21.20;99.90
790;DHT22;378;48.844;9.156;2023-09-12T06:42:41;21.30;99.90
790;DHT22;378;48.844;9.156;2023-09-12T06:45:09;21.30;99.90
790;DHT22;378;48.844;9.156;2023-09-12T06:47:36;21.30;99.90
790;DHT22;378;48.844;9.156;2023-09-12T06:50:03;21.30;99.90
790;DHT22;378;48.844;9.156;2023-09-12T06:52:31;21.30;99.90
790;DHT22;378;48.844;9.156;2023-09-12T06:55:00;21.40;99.90
790;DHT22;378;48.844;9.156;2023-09-12T06:57:26;21.40;99.90
790;DHT22;378;48.844;9.156;2023-09-12T06:59:54;21.40;99.90
790;DHT22;378;48.844;9.156;2023-09-12T07:02:21;21.50;99.90
790;DHT22;378;48.844;9.156;2023-09-12T07:04:48;21.50;99.90
790;DHT22;378;48.844;9.156;2023-09-12T07:07:15;21.60;99.90
790;DHT22;378;48.844;9.156;2023-09-12T07:09:51;21.60;99.90
790;DHT22;378;48.844;9.156;2023-09-12T07:12:21;21.60;99.90
790;DHT22;378;48.844;9.156;2023-09-12T07:14:48;21.50;99.90
790;DHT22;378;48.844;9.156;2023-09-12T07:17:16;21.50;99.90
790;DHT22;378;48.844;9.156;2023-09-12T07:19:44;21.50;99.90
790;DHT22;378;48.844;9.156;2023-09-12T07:22:11;21.60;99.90
790;DHT22;378;48.844;9.156;2023-09-12T07:24:38;21.50;99.90
790;DHT22;378;48.844;9.156;2023-09-12T07:27:04;21.50;99.90
790;DHT22;378;48.844;9.156;2023-09-12T07:29:33;21.50;99.90
790;DHT22;378;48.844;9.156;2023-09-12T07:31:59;21.50;99.90
790;DHT22;378;48.844;9.156;2023-09-12T07:34:26;21.50;99.90
790;DHT22;378;48.844;9.156;2023-09-12T07:36:53;21.50;99.90
790;DHT22;378;48.844;9.156;2023-09-12T07:39:20;21.50;99.90
790;DHT22;378;48.844;9.156;2023-09-12T07:41:49;21.60;99.90
790;DHT22;378;48.844;9.156;2023-09-12T07:44:16;21.70;99.90
790;DHT22;378;48.844;9.156;2023-09-12T07:46:44;21.70;99.90
790;DHT22;378;48.844;9.156;2023-09-12T07:49:11;21.80;99.90
790;DHT22;378;48.844;9.156;2023-09-12T07:51:38;21.90;99.90
790;DHT22;378;48.844;9.156;2023-09-12T07:54:05;22.00;99.90
790;DHT22;378;48.844;9.156;2023-09-12T07:56:31;22.20;99.90
790;DHT22;378;48.844;9.156;2023-09-12T07:58:58;22.40;99.90
790;DHT22;378;48.844;9.156;2023-09-12T08:01:25;22.40;99.90
790;DHT22;378;48.844;9.156;2023-09-12T08:03:54;22.50;99.90
790;DHT22;378;48.844;9.156;2023-09-12T08:06:21;22.60;99.90
790;DHT22;378;48.844;9.156;2023-09-12T08:08:49;22.60;99.90
790;DHT22;378;48.844;9.156;2023-09-12T08:11:19;22.70;99.90
790;DHT22;378;48.844;9.156;2023-09-12T08:13:48;22.70;99.90
790;DHT22;378;48.844;9.156;2023-09-12T08:16:15;22.80;99.90
790;DHT22;378;48.844;9.156;2023-09-12T08:18:42;22.80;99.90
790;DHT22;378;48.844;9.156;2023-09-12T08:21:10;22.90;99.90
790;DHT22;378;48.844;9.156;2023-09-12T08:23:37;22.90;99.90
790;DHT22;378;48.844;9.156;2023-09-12T08:26:04;22.90;99.90
790;DHT22;378;48.844;9.156;2023-09-12T08:28:31;22.90;99.90
790;DHT22;378;48.844;9.156;2023-09-12T08:30:57;22.90;99.90
790;DHT22;378;48.844;9.156;2023-09-12T08:33:24;23.00;99.90
790;DHT22;378;48.844;9.156;2023-09-12T08:35:51;23.00;99.90
790;DHT22;378;48.844;9.156;2023-09-12T08:38:19;23.10;99.90
790;DHT22;378;48.844;9.156;2023-09-12T08:40:48;23.10;99.90
790;DHT22;378;48.844;9.156;2023-09-12T08:43:15;23.20;99.90
790;DHT22;378;48.844;9.156;2023-09-12T08:45:42;23.20;99.90
790;DHT22;378;48.844;9.156;2023-09-12T08:48:11;23.20;99.90
790;DHT22;378;48.844;9.156;2023-09-12T08:50:38;23.30;99.90
790;DHT22;378;48.844;9.156;2023-09-12T08:53:05;23.30;99.90
790;DHT22;378;48.844;9.156;2023-09-12T08:55:34;23.30;99.90
790;DHT22;378;48.844;9.156;2023-09-12T08:58:03;23.30;99.90
790;DHT22;378;48.844;9.156;2023-09-12T09:00:30;23.40;99.90
790;DHT22;378;48.844;9.156;2023-09-12T09:02:57;23.40;99.90
790;DHT22;378;48.844;9.156;2023-09-12T09:05:25;23.50;99.90
790;DHT22;378;48.844;9.156;2023-09-12T09:07:54;23.50;99.90
790;DHT22;378;48.844;9.156;2023-09-12T09:10:22;23.50;99.90
790;DHT22;378;48.844;9.156;2023-09-12T09:12:50;23.60;99.90
790;DHT22;378;48.844;9.156;2023-09-12T09:15:21;23.70;99.90
790;DHT22;378;48.844;9.156;2023-09-12T09:17:48;23.70;99.90
790;DHT22;378;48.844;9.156;2023-09-12T09:20:22;23.80;99.90
790;DHT22;378;48.844;9.156;2023-09-12T09:22:57;23.90;99.90
790;DHT22;378;48.844;9.156;2023-09-12T09:25:24;24.00;99.90
790;DHT22;378;48.844;9.156;2023-09-12T09:27:52;24.00;99.90
790;DHT22;378;48.844;9.156;2023-09-12T09:30:39;24.20;99.90
790;DHT22;378;48.844;9.156;2023-09-12T09:33:06;24.30;99.90
790;DHT22;378;48.844;9.156;2023-09-12T09:35:33;24.40;99.90
790;DHT22;378;48.844;9.156;2023-09-12T09:38:00;24.40;99.90
790;DHT22;378;48.844;9.156;2023-09-12T09:40:27;24.50;99.90
790;DHT22;378;48.844;9.156;2023-09-12T09:42:57;24.60;99.90
790;DHT22;378;48.844;9.156;2023-09-12T09:45:25;24.60;99.90
790;DHT22;378;48.844;9.156;2023-09-12T09:47:52;24.60;99.90
790;DHT22;378;48.844;9.156;2023-09-12T09:50:18;24.60;99.90
790;DHT22;378;48.844;9.156;2023-09-12T09:52:45;24.70;99.90
790;DHT22;378;48.844;9.156;2023-09-12T09:55:13;24.70;99.90
790;DHT22;378;48.844;9.156;2023-09-12T09:57:40;24.80;99.90
790;DHT22;378;48.844;9.156;2023-09-12T10:00:09;24.80;99.90
790;DHT22;378;48.844;9.156;2023-09-12T10:02:40;24.90;99.90
790;DHT22;378;48.844;9.156;2023-09-12T10:05:09;24.90;99.90
790;DHT22;378;48.844;9.156;2023-09-12T10:07:38;25.00;99.90
790;DHT22;378;48.844;9.156;2023-09-12T10:10:05;25.00;99.90
790;DHT22;378;48.844;9.156;2023-09-12T10:12:35;25.10;99.90
790;DHT22;378;48.844;9.156;2023-09-12T10:15:04;25.10;99.90
790;DHT22;378;48.844;9.156;2023-09-12T10:17:36;25.20;99.90
790;DHT22;378;48.844;9.156;2023-09-12T10:20:04;25.30;99.90
790;DHT22;378;48.844;9.156;2023-09-12T10:22:40;25.30;99.90
790;DHT22;378;48.844;9.156;2023-09-12T10:25:11;25.50;99.90
790;DHT22;378;48.844;9.156;2023-09-12T10:48:22;25.90;99.90
790;DHT22;378;48.844;9.156;2023-09-12T10:50:49;26.00;99.90
790;DHT22;378;48.844;9.156;2023-09-12T10:53:16;26.00;99.90
790;DHT22;378;48.844;9.156;2023-09-12T10:55:58;26.00;99.90
790;DHT22;378;48.844;9.156;2023-09-12T10:58:25;26.20;99.90
790;DHT22;378;48.844;9.156;2023-09-12T11:01:23;26.30;99.90
790;DHT22;378;48.844;9.156;2023-09-12T11:03:52;26.40;99.90
790;DHT22;378;48.844;9.156;2023-09-12T11:06:20;26.50;99.90
790;DHT22;378;48.844;9.156;2023-09-12T11:09:15;26.60;99.90
790;DHT22;378;48.844;9.156;2023-09-12T11:11:45;26.70;99.90
790;DHT22;378;48.844;9.156;2023-09-12T11:14:12;26.70;99.90
790;DHT22;378;48.844;9.156;2023-09-12T11:16:41;26.70;99.90
790;DHT22;378;48.844;9.156;2023-09-12T11:19:17;26.70;99.90
790;DHT22;378;48.844;9.156;2023-09-12T11:21:45;26.80;99.90
790;DHT22;378;48.844;9.156;2023-09-12T11:24:13;26.80;99.90
790;DHT22;378;48.844;9.156;2023-09-12T11:26:56;26.90;99.90
790;DHT22;378;48.844;9.156;2023-09-12T11:29:27;27.00;99.90
790;DHT22;378;48.844;9.156;2023-09-12T11:31:55;27.10;99.90
790;DHT22;378;48.844;9.156;2023-09-12T11:34:29;27.10;99.90
790;DHT22;378;48.844;9.156;2023-09-12T11:36:58;27.20;99.90
790;DHT22;378;48.844;9.156;2023-09-12T11:39:28;27.30;99.90
790;DHT22;378;48.844;9.156;2023-09-12T11:41:56;27.30;99.90
790;DHT22;378;48.844;9.156;2023-09-12T11:44:23;27.40;99.90
790;DHT22;378;48.844;9.156;2023-09-12T11:46:52;27.50;99.90
790;DHT22;378;48.844;9.156;2023-09-12T11:49:19;27.50;99.90
790;DHT22;378;48.844;9.156;2023-09-12T11:51:52;27.60;99.90
790;DHT22;378;48.844;9.156;2023-09-12T11:54:20;27.70;99.90
790;DHT22;378;48.844;9.156;2023-09-12T11:56:48;27.80;99.90
790;DHT22;378;48.844;9.156;2023-09-12T11:59:15;27.80;99.90
790;DHT22;378;48.844;9.156;2023-09-12T12:01:44;27.90;99.90
790;DHT22;378;48.844;9.156;2023-09-12T12:04:12;28.00;99.90
790;DHT22;378;48.844;9.156;2023-09-12T12:06:39;28.00;99.90
790;DHT22;378;48.844;9.156;2023-09-12T12:09:08;28.00;99.90
790;DHT22;378;48.844;9.156;2023-09-12T12:11:35;28.00;99.90
790;DHT22;378;48.844;9.156;2023-09-12T12:14:12;28.00;99.90
790;DHT22;378;48.844;9.156;2023-09-12T12:16:40;28.10;99.90
790;DHT22;378;48.844;9.156;2023-09-12T12:19:07;28.20;99.90
790;DHT22;378;48.844;9.156;2023-09-12T12:21:34;28.30;99.90
790;DHT22;378;48.844;9.156;2023-09-12T12:24:02;28.30;99.90
790;DHT22;378;48.844;9.156;2023-09-12T12:26:32;28.20;99.90
790;DHT22;378;48.844;9.156;2023-09-12T12:28:59;28.20;99.90
790;DHT22;378;48.844;9.156;2023-09-12T12:31:27;28.10;99.90
790;DHT22;378;48.844;9.156;2023-09-12T12:33:54;28.10;99.90
790;DHT22;378;48.844;9.156;2023-09-12T12:36:21;28.10;99.90
790;DHT22;378;48.844;9.156;2023-09-12T12:38:50;28.20;99.90
790;DHT22;378;48.844;9.156;2023-09-12T12:41:22;28.30;99.90
790;DHT22;378;48.844;9.156;2023-09-12T12:43:51;28.30;99.90
790;DHT22;378;48.844;9.156;2023-09-12T12:46:18;28.40;99.90
790;DHT22;378;48.844;9.156;2023-09-12T12:48:47;28.40;99.90
790;DHT22;378;48.844;9.156;2023-09-12T12:51:16;28.50;99.90
790;DHT22;378;48.844;9.156;2023-09-12T12:53:45;28.60;99.90
790;DHT22;378;48.844;9.156;2023-09-12T12:56:14;28.70;99.90
790;DHT22;378;48.844;9.156;2023-09-12T12:58:50;28.70;99.90
790;DHT22;378;48.844;9.156;2023-09-12T13:01:17;28.80;99.90
790;DHT22;378;48.844;9.156;2023-09-12T13:03:44;28.80;99.90
790;DHT22;378;48.844;9.156;2023-09-12T13:06:12;28.80;99.90
790;DHT22;378;48.844;9.156;2023-09-12T13:08:44;28.90;99.90
790;DHT22;378;48.844;9.156;2023-09-12T13:11:12;28.80;99.90
790;DHT22;378;48.844;9.156;2023-09-12T13:13:40;28.80;99.90
790;DHT22;378;48.844;9.156;2023-09-12T13:16:09;28.80;99.90
790;DHT22;378;48.844;9.156;2023-09-12T13:18:39;28.70;99.90
790;DHT22;378;48.844;9.156;2023-09-12T13:21:06;28.70;99.90
790;DHT22;378;48.844;9.156;2023-09-12T13:23:34;28.70;99.90
790;DHT22;378;48.844;9.156;2023-09-12T13:26:00;28.70;99.90
790;DHT22;378;48.844;9.156;2023-09-12T13:28:28;28.80;99.90
790;DHT22;378;48.844;9.156;2023-09-12T13:30:56;28.90;99.90
790;DHT22;378;48.844;9.156;2023-09-12T13:33:24;29.00;99.90
790;DHT22;378;48.844;9.156;2023-09-12T13:35:51;29.10;99.90
790;DHT22;378;48.844;9.156;2023-09-12T13:38:18;29.20;99.90
790;DHT22;378;48.844;9.156;2023-09-12T13:40:46;29.30;99.90
790;DHT22;378;48.844;9.156;2023-09-12T13:43:13;29.40;99.90
790;DHT22;378;48.844;9.156;2023-09-12T13:45:40;29.40;99.90
790;DHT22;378;48.844;9.156;2023-09-12T13:48:07;29.50;99.90
790;DHT22;378;48.844;9.156;2023-09-12T13:50:36;29.50;99.90
790;DHT22;378;48.844;9.156;2023-09-12T13:53:03;29.60;99.90
790;DHT22;378;48.844;9.156;2023-09-12T13:55:32;29.60;99.90
790;DHT22;378;48.844;9.156;2023-09-12T13:57:59;29.60;99.90
790;DHT22;378;48.844;9.156;2023-09-12T14:00:25;29.50;99.90
790;DHT22;378;48.844;9.156;2023-09-12T14:02:52;29.50;99.90
790;DHT22;378;48.844;9.156;2023-09-12T14:05:19;29.50;99.90
790;DHT22;378;48.844;9.156;2023-09-12T14:07:47;29.50;99.90
790;DHT22;378;48.844;9.156;2023-09-12T14:10:15;29.50;99.90
790;DHT22;378;48.844;9.156;2023-09-12T14:12:42;29.50;99.90
790;DHT22;378;48.844;9.156;2023-09-12T14:15:11;29.50;99.90
790;DHT22;378;48.844;9.156;2023-09-12T14:17:39;29.60;99.90
790;DHT22;378;48.844;9.156;2023-09-12T14:20:07;29.70;99.90
790;DHT22;378;48.844;9.156;2023-09-12T14:22:34;29.70;99.90
790;DHT22;378;48.844;9.156;2023-09-12T14:25:03;29.70;99.90
790;DHT22;378;48.844;9.156;2023-09-12T14:27:30;29.80;99.90
790;DHT22;378;48.844;9.156;2023-09-12T14:29:57;29.80;99.90
790;DHT22;378;48.844;9.156;2023-09-12T14:32:25;29.90;99.90
790;DHT22;378;48.844;9.156;2023-09-12T14:34:52;29.80;99.90
790;DHT22;378;48.844;9.156;2023-09-12T14:37:18;29.80;99.90
790;DHT22;378;48.844;9.156;2023-09-12T14:39:45;29.70;99.90
790;DHT22;378;48.844;9.156;2023-09-12T14:42:13;29.50;99.90
790;DHT22;378;48.844;9.156;2023-09-12T14:44:40;29.40;99.90
790;DHT22;378;48.844;9.156;2023-09-12T14:47:07;29.20;99.90
790;DHT22;378;48.844;9.156;2023-09-12T14:49:34;29.20;99.90
790;DHT22;378;48.844;9.156;2023-09-12T14:52:01;29.10;99.90
790;DHT22;378;48.844;9.156;2023-09-12T14:54:28;29.00;99.90
790;DHT22;378;48.844;9.156;2023-09-12T14:56:55;29.00;99.90
790;DHT22;378;48.844;9.156;2023-09-12T14:59:23;29.00;99.90
790;DHT22;378;48.844;9.156;2023-09-12T15:01:49;29.00;99.90
790;DHT22;378;48.844;9.156;2023-09-12T15:04:16;29.00;99.90
790;DHT22;378;48.844;9.156;2023-09-12T15:06:43;28.90;99.90
790;DHT22;378;48.844;9.156;2023-09-12T15:39:51;28.60;99.90
790;DHT22;378;48.844;9.156;2023-09-12T15:42:19;28.60;99.90
790;DHT22;378;48.844;9.156;2023-09-12T15:44:45;28.60;99.90
790;DHT22;378;48.844;9.156;2023-09-12T15:47:12;28.50;99.90
790;DHT22;378;48.844;9.156;2023-09-12T15:49:39;28.50;99.90
790;DHT22;378;48.844;9.156;2023-09-12T15:52:06;28.50;99.90
790;DHT22;378;48.844;9.156;2023-09-12T15:54:33;28.40;99.90
790;DHT22;378;48.844;9.156;2023-09-12T15:57:02;28.30;99.90
790;DHT22;378;48.844;9.156;2023-09-12T15:59:30;28.20;99.90
790;DHT22;378;48.844;9.156;2023-09-12T16:01:57;28.20;99.90
790;DHT22;378;48.844;9.156;2023-09-12T16:04:24;28.30;99.90
790;DHT22;378;48.844;9.156;2023-09-12T16:06:52;28.20;99.90
790;DHT22;378;48.844;9.156;2023-09-12T16:09:19;28.20;99.90
790;DHT22;378;48.844;9.156;2023-09-12T16:11:45;28.20;99.90
790;DHT22;378;48.844;9.156;2023-09-12T16:14:15;28.20;99.90
790;DHT22;378;48.844;9.156;2023-09-12T16:16:42;28.20;99.90
790;DHT22;378;48.844;9.156;2023-09-12T16:19:08;28.20;99.90
790;DHT22;378;48.844;9.156;2023-09-12T16:21:36;28.30;99.90
790;DHT22;378;48.844;9.156;2023-09-12T16:24:04;28.30;99.90
790;DHT22;378;48.844;9.156;2023-09-12T16:26:31;28.30;99.90
790;DHT22;378;48.844;9.156;2023-09-12T16:28:57;28.30;99.90
790;DHT22;378;48.844;9.156;2023-09-12T16:31:25;28.30;99.90
790;DHT22;378;48.844;9.156;2023-09-12T16:33:52;28.30;99.90
790;DHT22;378;48.844;9.156;2023-09-12T16:36:19;28.30;99.90
790;DHT22;378;48.844;9.156;2023-09-12T16:38:46;28.20;99.90
790;DHT22;378;48.844;9.156;2023-09-12T16:41:13;28.20;99.90
790;DHT22;378;48.844;9.156;2023-09-12T16:43:39;28.20;99.90
790;DHT22;378;48.844;9.156;2023-09-12T16:46:06;28.20;99.90
790;DHT22;378;48.844;9.156;2023-09-12T16:48:34;28.10;99.90
790;DHT22;378;48.844;9.156;2023-09-12T16:51:01;28.00;99.90
790;DHT22;378;48.844;9.156;2023-09-12T16:53:28;27.90;99.90
790;DHT22;378;48.844;9.156;2023-09-12T16:55:55;27.90;99.90
790;DHT22;378;48.844;9.156;2023-09-12T16:58:23;27.80;99.90
790;DHT22;378;48.844;9.156;2023-09-12T17:00:51;27.80;99.90
790;DHT22;378;48.844;9.156;2023-09-12T17:03:18;27.70;99.90
790;DHT22;378;48.844;9.156;2023-09-12T17:05:46;27.60;99.90
790;DHT22;378;48.844;9.156;2023-09-12T17:08:13;27.50;99.90
790;DHT22;378;48.844;9.156;2023-09-12T17:10:40;27.50;99.90
790;DHT22;378;48.844;9.156;2023-09-12T17:13:07;27.40;99.90
790;DHT22;378;48.844;9.156;2023-09-12T17:15:36;27.30;99.90
790;DHT22;378;48.844;9.156;2023-09-12T17:18:03;27.20;99.90
790;DHT22;378;48.844;9.156;2023-09-12T17:20:30;27.10;99.90
790;DHT22;378;48.844;9.156;2023-09-12T17:22:58;27.00;99.90
790;DHT22;378;48.844;9.156;2023-09-12T17:25:25;27.00;99.90
790;DHT22;378;48.844;9.156;2023-09-12T17:27:52;27.00;99.90
790;DHT22;378;48.844;9.156;2023-09-12T17:30:19;27.00;99.90
790;DHT22;378;48.844;9.156;2023-09-12T17:32:47;26.90;99.90